createdAt,value
2023-03-29T00:00:14.182Z,2.77
2023-03-29T00:02:48.472Z,2.67
2023-03-29T00:05:23.117Z,2.61
2023-03-29T00:08:01.733Z,2.52
2023-03-29T00:10:30.161Z,2.47
2023-03-29T00:12:58.600Z,2.44
2023-03-29T00:15:28.649Z,2.41
2023-03-29T00:17:57.315Z,2.38
2023-03-29T00:20:25.930Z,2.34
2023-03-29T00:22:54.360Z,2.31
2023-03-29T00:25:22.728Z,2.33
2023-03-29T00:27:51.235Z,2.31
2023-03-29T00:30:19.987Z,2.31
2023-03-29T00:32:49.797Z,2.36
2023-03-29T00:35:18.270Z,2.33
2023-03-29T00:37:47.223Z,2.32
2023-03-29T00:40:16.722Z,2.32
2023-03-29T00:42:45.536Z,2.32
2023-03-29T00:45:22.452Z,2.32
2023-03-29T00:47:55.584Z,2.29
2023-03-29T00:50:29.640Z,2.26
2023-03-29T00:53:04.403Z,2.26
2023-03-29T00:55:36.374Z,2.24
2023-03-29T00:58:08.737Z,2.23
2023-03-29T01:00:41.344Z,2.23
2023-03-29T01:03:15.397Z,2.26
2023-03-29T01:05:47.904Z,2.20
2023-03-29T01:08:21.902Z,2.17
2023-03-29T01:10:54.745Z,2.16
2023-03-29T01:13:30.129Z,2.15
2023-03-29T01:16:00.170Z,2.17
2023-03-29T01:18:31.444Z,2.11
2023-03-29T01:21:15.345Z,2.20
2023-03-29T01:24:08.470Z,2.20
2023-03-29T01:26:44.862Z,2.21
2023-03-29T01:29:18.500Z,2.26
2023-03-29T01:31:52.704Z,2.26
2023-03-29T01:34:25.566Z,2.29
2023-03-29T01:37:00.468Z,2.34
2023-03-29T01:39:28.808Z,2.34
2023-03-29T01:42:06.413Z,2.35
2023-03-29T01:44:41.352Z,2.32
2023-03-29T01:47:14.828Z,2.26
2023-03-29T01:49:47.925Z,2.26
2023-03-29T01:52:21.466Z,2.20
2023-03-29T01:54:54.676Z,2.17
2023-03-29T01:57:25.690Z,2.10
2023-03-29T01:59:58.846Z,2.08
2023-03-29T02:02:30.451Z,2.04
2023-03-29T02:05:00.155Z,2.05
2023-03-29T02:07:32.348Z,2.07
2023-03-29T02:10:02.220Z,1.98
2023-03-29T02:12:30.716Z,1.96
2023-03-29T02:15:00.858Z,1.92
2023-03-29T02:17:34.316Z,1.92
2023-03-29T02:20:14.079Z,1.91
2023-03-29T02:22:50.683Z,1.90
2023-03-29T02:25:22.490Z,1.89
2023-03-29T02:27:51.807Z,1.90
2023-03-29T02:30:22.638Z,1.92
2023-03-29T02:32:56.835Z,1.90
2023-03-29T02:35:34.563Z,1.90
2023-03-29T02:38:06.517Z,1.96
2023-03-29T02:40:39.192Z,1.98
2023-03-29T02:43:09.168Z,2.03
2023-03-29T02:45:41.617Z,2.03
2023-03-29T02:48:13.599Z,2.05
2023-03-29T02:50:46.360Z,2.06
2023-03-29T02:53:18.923Z,2.09
2023-03-29T02:55:47.496Z,2.10
2023-03-29T02:58:16.416Z,2.10
2023-03-29T03:00:48.081Z,2.10
2023-03-29T03:03:16.967Z,2.10
2023-03-29T03:05:45.462Z,2.06
2023-03-29T03:08:13.995Z,2.02
2023-03-29T03:10:42.619Z,2.00
2023-03-29T03:13:11.323Z,1.96
2023-03-29T03:15:42.738Z,1.91
2023-03-29T03:18:12.793Z,1.83
2023-03-29T03:20:41.280Z,1.76
2023-03-29T03:23:14.598Z,1.73
2023-03-29T03:25:42.965Z,1.69
2023-03-29T03:28:11.471Z,1.59
2023-03-29T03:30:39.877Z,1.51
2023-03-29T03:33:09.057Z,1.49
2023-03-29T03:35:39.174Z,1.43
2023-03-29T03:38:08.636Z,1.33
2023-03-29T03:40:37.035Z,1.37
2023-03-29T03:43:05.448Z,1.44
2023-03-29T03:45:33.876Z,1.48
2023-03-29T03:48:02.310Z,1.49
2023-03-29T03:50:30.760Z,1.49
2023-03-29T03:53:00.534Z,1.45
2023-03-29T03:55:29.980Z,1.42
2023-03-29T03:57:58.350Z,1.37
2023-03-29T04:00:27.423Z,1.36
2023-03-29T04:02:56.322Z,1.37
2023-03-29T04:05:24.957Z,1.37
2023-03-29T04:07:54.268Z,1.37
2023-03-29T04:10:24.607Z,1.39
2023-03-29T04:12:53.132Z,1.40
2023-03-29T04:15:21.766Z,1.40
2023-03-29T04:17:50.252Z,1.39
2023-03-29T04:20:18.972Z,1.39
2023-03-29T04:22:47.386Z,1.36
2023-03-29T04:25:16.544Z,1.35
2023-03-29T04:27:47.024Z,1.33
2023-03-29T04:30:15.794Z,1.30
2023-03-29T04:32:44.403Z,1.35
2023-03-29T04:35:12.832Z,1.39
2023-03-29T04:37:41.834Z,1.39
2023-03-29T04:40:14.183Z,1.39
2023-03-29T04:42:44.373Z,1.38
2023-03-29T04:45:15.429Z,1.37
2023-03-29T04:47:45.134Z,1.35
2023-03-29T04:50:14.771Z,1.33
2023-03-29T04:52:45.525Z,1.32
2023-03-29T04:55:14.222Z,1.33
2023-03-29T04:57:44.809Z,1.34
2023-03-29T05:00:16.907Z,1.32
2023-03-29T05:02:46.641Z,1.34
2023-03-29T05:05:15.248Z,1.37
2023-03-29T05:07:44.350Z,1.36
2023-03-29T05:10:12.899Z,1.39
2023-03-29T05:12:41.331Z,1.43
2023-03-29T05:15:11.105Z,1.49
2023-03-29T05:17:40.972Z,1.51
2023-03-29T05:20:11.311Z,1.50
2023-03-29T05:22:40.320Z,1.49
2023-03-29T05:25:11.449Z,1.51
2023-03-29T05:27:40.128Z,1.52
2023-03-29T05:30:10.042Z,1.51
2023-03-29T05:32:39.933Z,1.52
2023-03-29T05:35:09.199Z,1.51
2023-03-29T05:37:37.602Z,1.56
2023-03-29T05:40:10.361Z,1.60
2023-03-29T05:42:38.958Z,1.63
2023-03-29T05:45:08.602Z,1.65
2023-03-29T05:47:37.105Z,1.64
2023-03-29T05:50:10.322Z,1.67
2023-03-29T05:52:39.031Z,1.66
2023-03-29T05:55:08.768Z,1.70
2023-03-29T05:57:37.598Z,1.75
2023-03-29T06:00:15.765Z,1.79
2023-03-29T06:02:44.436Z,1.80
2023-03-29T06:05:15.002Z,1.89
2023-03-29T06:07:43.472Z,1.93
2023-03-29T06:10:12.731Z,2.07
2023-03-29T06:12:41.170Z,2.15
2023-03-29T06:15:10.306Z,2.19
2023-03-29T06:17:39.488Z,2.20
2023-03-29T06:20:11.045Z,2.26
2023-03-29T06:22:42.567Z,2.30
2023-03-29T06:25:12.375Z,2.29
2023-03-29T06:27:40.869Z,2.34
2023-03-29T06:30:10.328Z,2.35
2023-03-29T06:32:38.911Z,2.43
2023-03-29T06:35:08.394Z,2.47
2023-03-29T06:37:37.038Z,2.47
2023-03-29T06:40:10.103Z,2.47
2023-03-29T06:42:38.963Z,2.51
2023-03-29T06:45:08.739Z,2.53
2023-03-29T06:47:37.263Z,2.60
2023-03-29T06:50:06.861Z,2.63
2023-03-29T06:52:35.719Z,2.69
2023-03-29T06:55:07.846Z,2.75
2023-03-29T06:57:37.675Z,2.76
2023-03-29T07:00:14.907Z,2.74
2023-03-29T07:02:43.371Z,2.78
2023-03-29T07:05:13.565Z,2.82
2023-03-29T07:07:56.506Z,2.86
2023-03-29T07:10:28.137Z,2.89
2023-03-29T07:12:58.012Z,2.93
2023-03-29T07:15:27.598Z,3.00
2023-03-29T07:17:57.538Z,3.03
2023-03-29T07:20:27.158Z,3.10
2023-03-29T07:22:56.079Z,3.14
2023-03-29T07:25:27.458Z,3.23
2023-03-29T07:27:57.684Z,3.25
2023-03-29T07:30:31.612Z,3.30
2023-03-29T07:33:01.099Z,3.37
2023-03-29T07:35:30.957Z,3.45
2023-03-29T07:37:59.478Z,3.51
2023-03-29T07:40:28.184Z,3.59
2023-03-29T07:42:58.804Z,3.65
2023-03-29T07:45:29.797Z,3.77
2023-03-29T07:47:59.976Z,3.81
2023-03-29T07:50:28.837Z,3.92
2023-03-29T07:52:57.585Z,3.97
2023-03-29T07:55:26.167Z,4.03
2023-03-29T07:57:54.635Z,4.13
2023-03-29T08:00:25.313Z,4.22
2023-03-29T08:02:54.093Z,4.30
2023-03-29T08:05:37.839Z,4.37
2023-03-29T08:08:10.213Z,4.43
2023-03-29T08:10:39.749Z,4.49
2023-03-29T08:13:09.342Z,4.56
2023-03-29T08:15:40.032Z,4.62
2023-03-29T08:18:09.363Z,4.68
2023-03-29T08:20:38.124Z,4.73
2023-03-29T08:23:06.582Z,4.80
2023-03-29T08:25:35.170Z,4.80
2023-03-29T08:28:03.676Z,4.88
2023-03-29T08:30:32.125Z,4.91
2023-03-29T08:33:02.237Z,5.04
2023-03-29T08:35:30.973Z,5.01
2023-03-29T08:37:59.391Z,5.05
2023-03-29T08:40:30.497Z,5.07
2023-03-29T08:43:24.036Z,5.10
2023-03-29T08:46:04.518Z,5.10
2023-03-29T08:48:37.793Z,5.17
2023-03-29T08:51:14.370Z,5.24
2023-03-29T08:53:47.712Z,5.34
2023-03-29T08:56:19.537Z,5.44
2023-03-29T08:58:49.266Z,5.57
2023-03-29T09:01:17.928Z,5.84
2023-03-29T09:03:51.064Z,5.85
2023-03-29T09:06:22.233Z,5.93
2023-03-29T09:08:53.041Z,6.06
2023-03-29T09:11:44.110Z,6.13
2023-03-29T09:14:40.289Z,6.32
2023-03-29T09:17:21.728Z,6.49
2023-03-29T09:19:57.752Z,6.58
2023-03-29T09:22:36.694Z,6.58
2023-03-29T09:25:13.409Z,6.59
2023-03-29T09:27:50.148Z,6.69
2023-03-29T09:30:26.186Z,6.76
2023-03-29T09:32:58.314Z,6.86
2023-03-29T09:35:33.144Z,6.97
2023-03-29T09:38:01.930Z,7.02
2023-03-29T09:40:35.287Z,7.12
2023-03-29T09:43:05.985Z,7.27
2023-03-29T09:45:38.573Z,7.29
2023-03-29T09:48:13.467Z,7.37
2023-03-29T09:50:46.504Z,7.46
2023-03-29T09:53:16.010Z,7.55
2023-03-29T09:55:48.361Z,7.72
2023-03-29T09:58:21.424Z,7.80
2023-03-29T10:00:51.141Z,7.88
2023-03-29T10:03:21.211Z,7.95
2023-03-29T10:05:54.507Z,8.03
2023-03-29T10:08:28.208Z,8.11
2023-03-29T10:10:58.888Z,8.20
2023-03-29T10:13:30.631Z,8.32
2023-03-29T10:16:03.789Z,8.35
2023-03-29T10:18:33.301Z,8.38
2023-03-29T10:21:05.496Z,8.47
2023-03-29T10:23:35.273Z,8.45
2023-03-29T10:26:05.423Z,8.45
2023-03-29T10:28:36.305Z,8.55
2023-03-29T10:31:08.229Z,8.72
2023-03-29T10:33:37.551Z,8.78
2023-03-29T10:36:09.002Z,8.88
2023-03-29T10:38:38.651Z,9.12
2023-03-29T10:41:10.130Z,9.02
2023-03-29T10:43:40.514Z,9.15
2023-03-29T10:46:10.994Z,9.29
2023-03-29T10:48:50.244Z,9.34
2023-03-29T10:51:21.114Z,9.59
2023-03-29T10:53:49.583Z,9.49
2023-03-29T10:56:40.194Z,9.38
2023-03-29T10:59:19.705Z,9.28
2023-03-29T11:01:58.805Z,9.24
2023-03-29T11:04:35.637Z,9.22
2023-03-29T11:07:27.884Z,9.35
2023-03-29T11:10:05.999Z,9.41
2023-03-29T11:12:43.844Z,9.42
2023-03-29T11:15:38.317Z,9.41
2023-03-29T11:18:25.853Z,9.36
2023-03-29T11:21:02.353Z,9.30
2023-03-29T11:23:47.184Z,9.45
2023-03-29T11:26:18.200Z,9.41
2023-03-29T11:28:53.370Z,9.54
2023-03-29T11:31:37.218Z,9.62
2023-03-29T11:34:21.803Z,9.67
2023-03-29T11:36:58.742Z,9.65
2023-03-29T11:39:41.724Z,9.68
2023-03-29T11:42:17.777Z,9.85
2023-03-29T11:44:49.459Z,9.99
2023-03-29T11:47:21.448Z,10.07
2023-03-29T11:49:54.600Z,10.12
2023-03-29T11:52:30.067Z,10.03
2023-03-29T11:55:04.178Z,10.03
2023-03-29T11:57:38.184Z,9.98
2023-03-29T12:00:12.514Z,9.91
2023-03-29T12:02:43.689Z,10.05
2023-03-29T12:05:18.975Z,10.37
2023-03-29T12:07:53.196Z,10.47
2023-03-29T12:10:26.807Z,10.54
2023-03-29T12:13:01.164Z,10.49
2023-03-29T12:15:32.336Z,10.91
2023-03-29T12:18:08.324Z,10.91
2023-03-29T12:20:40.838Z,10.94
2023-03-29T12:23:13.825Z,10.83
2023-03-29T12:25:53.443Z,10.68
2023-03-29T12:28:40.332Z,10.56
2023-03-29T12:31:17.807Z,10.64
2023-03-29T12:34:04.969Z,10.35
2023-03-29T12:36:56.518Z,10.26
2023-03-29T12:39:26.765Z,10.18
2023-03-29T12:42:07.351Z,10.06
2023-03-29T12:44:36.826Z,10.08
2023-03-29T12:47:05.466Z,9.96
2023-03-29T12:49:36.471Z,9.90
2023-03-29T12:52:13.922Z,9.94
2023-03-29T12:54:42.538Z,9.93
2023-03-29T12:57:27.722Z,9.91
2023-03-29T12:59:56.418Z,9.88
2023-03-29T13:02:36.989Z,9.94
2023-03-29T13:05:26.497Z,10.09
2023-03-29T13:07:56.028Z,10.09
2023-03-29T13:10:37.910Z,10.19
2023-03-29T13:13:18.858Z,10.19
2023-03-29T13:15:48.500Z,10.20
2023-03-29T13:18:32.182Z,10.16
2023-03-29T13:21:08.515Z,10.18
2023-03-29T13:23:46.084Z,10.10
2023-03-29T13:26:25.341Z,10.13
2023-03-29T13:29:16.278Z,10.10
2023-03-29T13:31:51.572Z,10.11
2023-03-29T13:34:33.828Z,10.03
2023-03-29T13:37:12.994Z,9.99
2023-03-29T13:39:51.268Z,10.03
2023-03-29T13:42:23.599Z,9.99
2023-03-29T13:44:53.921Z,9.83
2023-03-29T13:47:48.908Z,9.71
2023-03-29T13:50:37.510Z,9.73
2023-03-29T13:53:13.774Z,9.82
2023-03-29T13:55:48.497Z,9.71
2023-03-29T13:58:27.364Z,9.75
2023-03-29T14:01:02.621Z,9.71
2023-03-29T14:03:40.790Z,9.89
2023-03-29T14:06:15.522Z,9.84
2023-03-29T14:08:45.881Z,9.90
2023-03-29T14:11:23.280Z,9.81
2023-03-29T14:13:54.539Z,9.89
2023-03-29T14:16:30.531Z,9.88
2023-03-29T14:19:00.375Z,9.86
2023-03-29T14:21:28.922Z,9.86
2023-03-29T14:24:01.579Z,9.83
2023-03-29T14:26:32.743Z,9.83
2023-03-29T14:29:02.673Z,9.78
2023-03-29T14:31:34.307Z,9.80
2023-03-29T14:34:06.147Z,9.74
2023-03-29T14:36:35.349Z,9.71
2023-03-29T14:39:09.207Z,9.77
2023-03-29T14:41:39.527Z,9.72
2023-03-29T14:44:09.238Z,9.76
2023-03-29T14:46:39.533Z,9.79
2023-03-29T14:49:08.867Z,9.78
2023-03-29T14:51:40.574Z,9.72
2023-03-29T14:54:12.366Z,9.70
2023-03-29T14:56:41.127Z,9.70
2023-03-29T14:59:26.370Z,9.74
2023-03-29T15:01:56.834Z,9.71
2023-03-29T15:04:32.738Z,9.67
2023-03-29T15:07:01.358Z,9.76
2023-03-29T15:09:35.257Z,9.81
2023-03-29T15:12:04.590Z,9.85
2023-03-29T15:14:37.107Z,9.81
2023-03-29T15:17:17.654Z,9.75
2023-03-29T15:19:46.262Z,9.70
2023-03-29T15:22:14.710Z,9.72
2023-03-29T15:24:45.447Z,9.71
2023-03-29T15:27:17.039Z,9.66
2023-03-29T15:29:48.380Z,9.65
2023-03-29T15:32:26.030Z,9.59
2023-03-29T15:35:01.662Z,9.67
2023-03-29T15:37:31.081Z,9.58
2023-03-29T15:39:59.903Z,9.65
2023-03-29T15:42:28.499Z,9.57
2023-03-29T15:44:57.258Z,9.55
2023-03-29T15:47:28.344Z,9.65
2023-03-29T15:49:56.815Z,9.65
2023-03-29T15:52:25.288Z,9.67
2023-03-29T15:54:53.704Z,9.71
2023-03-29T15:57:22.238Z,9.72
2023-03-29T15:59:50.774Z,9.82
2023-03-29T16:02:23.970Z,9.84
2023-03-29T16:04:53.793Z,9.83
2023-03-29T16:07:22.683Z,9.89
2023-03-29T16:09:51.205Z,9.90
2023-03-29T16:12:19.679Z,9.86
2023-03-29T16:14:48.118Z,9.89
2023-03-29T16:17:16.622Z,9.90
2023-03-29T16:19:45.047Z,9.90
2023-03-29T16:22:14.896Z,9.93
2023-03-29T16:24:43.910Z,9.94
2023-03-29T16:27:12.318Z,9.95
2023-03-29T16:29:40.810Z,9.95
2023-03-29T16:32:11.022Z,9.94
2023-03-29T16:34:41.060Z,9.93
2023-03-29T16:37:09.942Z,9.93
2023-03-29T16:39:40.530Z,9.97
2023-03-29T16:42:12.191Z,9.97
2023-03-29T16:44:40.647Z,9.95
2023-03-29T16:47:12.099Z,9.95
2023-03-29T16:49:41.089Z,9.93
2023-03-29T16:52:10.802Z,9.91
2023-03-29T16:54:40.652Z,9.88
2023-03-29T16:57:10.343Z,9.89
2023-03-29T16:59:38.834Z,9.90
2023-03-29T17:02:07.280Z,9.88
2023-03-29T17:04:36.195Z,9.88
2023-03-29T17:07:04.810Z,9.85
2023-03-29T17:09:33.495Z,9.85
2023-03-29T17:12:03.320Z,9.83
2023-03-29T17:14:31.706Z,9.88
2023-03-29T17:17:00.140Z,9.84
2023-03-29T17:19:28.584Z,9.84
2023-03-29T17:21:56.999Z,9.82
2023-03-29T17:24:25.473Z,9.82
2023-03-29T17:26:53.976Z,9.80
2023-03-29T17:29:23.911Z,9.78
2023-03-29T17:31:52.345Z,9.78
2023-03-29T17:34:20.894Z,9.81
2023-03-29T17:36:49.297Z,9.78
2023-03-29T17:39:18.759Z,9.78
2023-03-29T17:41:47.770Z,9.74
2023-03-29T17:44:16.243Z,9.71
2023-03-29T17:46:46.146Z,9.70
2023-03-29T17:49:15.148Z,9.68
2023-03-29T17:51:43.624Z,9.66
2023-03-29T17:54:12.150Z,9.67
2023-03-29T17:56:40.824Z,9.64
2023-03-29T17:59:09.318Z,9.62
2023-03-29T18:01:39.260Z,9.62
2023-03-29T18:04:09.534Z,9.61
2023-03-29T18:06:38.136Z,9.57
2023-03-29T18:09:06.614Z,9.56
2023-03-29T18:11:36.425Z,9.56
2023-03-29T18:14:05.342Z,9.53
2023-03-29T18:16:34.078Z,9.50
2023-03-29T18:19:02.539Z,9.50
2023-03-29T18:21:32.340Z,9.46
2023-03-29T18:24:00.749Z,9.45
2023-03-29T18:26:29.808Z,9.43
2023-03-29T18:28:58.276Z,9.41
2023-03-29T18:31:28.067Z,9.40
2023-03-29T18:33:56.610Z,9.37
2023-03-29T18:36:26.445Z,9.38
2023-03-29T18:38:56.354Z,9.40
2023-03-29T18:41:24.831Z,9.39
2023-03-29T18:43:57.402Z,9.38
2023-03-29T18:46:30.360Z,9.43
2023-03-29T18:48:59.617Z,9.45
2023-03-29T18:51:29.334Z,9.44
2023-03-29T18:53:59.288Z,9.45
2023-03-29T18:56:28.546Z,9.45
2023-03-29T18:58:57.020Z,9.45
2023-03-29T19:01:25.924Z,9.46
2023-03-29T19:03:54.654Z,9.45
2023-03-29T19:06:23.191Z,9.48
2023-03-29T19:08:51.671Z,9.46
2023-03-29T19:11:21.671Z,9.48
2023-03-29T19:13:50.856Z,9.45
2023-03-29T19:16:19.369Z,9.48
2023-03-29T19:18:47.996Z,9.46
2023-03-29T19:21:16.472Z,9.45
2023-03-29T19:23:45.022Z,9.47
2023-03-29T19:26:15.009Z,9.48
2023-03-29T19:28:44.825Z,9.49
2023-03-29T19:31:13.420Z,9.49
2023-03-29T19:33:42.084Z,9.51
2023-03-29T19:36:10.812Z,9.52
2023-03-29T19:38:39.336Z,9.49
2023-03-29T19:41:08.921Z,9.50
2023-03-29T19:43:37.326Z,9.46
2023-03-29T19:46:12.469Z,9.42
2023-03-29T19:48:41.318Z,9.40
2023-03-29T19:51:10.141Z,9.38
2023-03-29T19:53:39.138Z,9.36
2023-03-29T19:56:10.875Z,9.33
2023-03-29T19:58:39.492Z,9.30
2023-03-29T20:01:08.146Z,9.30
2023-03-29T20:03:38.744Z,9.27
2023-03-29T20:06:10.453Z,9.24
2023-03-29T20:08:39.050Z,9.19
2023-03-29T20:11:10.193Z,9.19
2023-03-29T20:13:39.615Z,9.15
2023-03-29T20:16:09.782Z,9.16
2023-03-29T20:18:39.958Z,9.16
2023-03-29T20:21:09.537Z,9.14
2023-03-29T20:23:38.367Z,9.12
2023-03-29T20:26:07.360Z,9.10
2023-03-29T20:28:37.538Z,9.10
2023-03-29T20:31:07.582Z,9.09
2023-03-29T20:33:35.989Z,9.09
2023-03-29T20:36:06.558Z,9.09
2023-03-29T20:38:35.302Z,9.08
2023-03-29T20:41:05.250Z,9.09
2023-03-29T20:43:37.531Z,9.11
2023-03-29T20:46:14.378Z,9.15
2023-03-29T20:48:45.934Z,9.15
2023-03-29T20:51:18.260Z,9.16
2023-03-29T20:53:46.811Z,9.13
2023-03-29T20:56:15.928Z,9.13
2023-03-29T20:58:44.353Z,9.14
2023-03-29T21:01:14.243Z,9.16
2023-03-29T21:03:43.336Z,9.14
2023-03-29T21:06:14.012Z,9.15
2023-03-29T21:08:43.827Z,9.14
2023-03-29T21:11:13.147Z,9.13
2023-03-29T21:13:42.150Z,9.11
2023-03-29T21:16:11.156Z,9.07
2023-03-29T21:18:40.589Z,9.06
2023-03-29T21:21:09.565Z,9.07
2023-03-29T21:23:38.860Z,9.06
2023-03-29T21:26:09.380Z,9.07
2023-03-29T21:28:37.873Z,9.08
2023-03-29T21:31:07.195Z,9.07
2023-03-29T21:33:36.458Z,9.04
2023-03-29T21:36:05.622Z,9.06
2023-03-29T21:38:34.126Z,9.04
2023-03-29T21:41:03.306Z,9.02
2023-03-29T21:43:33.362Z,9.01
2023-03-29T21:46:01.750Z,9.01
2023-03-29T21:48:30.332Z,8.98
2023-03-29T21:50:58.941Z,8.98
2023-03-29T21:53:27.332Z,8.96
2023-03-29T21:55:55.889Z,8.92
2023-03-29T21:58:24.323Z,8.93
2023-03-29T22:00:56.709Z,8.90
2023-03-29T22:03:25.361Z,8.93
2023-03-29T22:05:58.509Z,8.92
2023-03-29T22:08:27.106Z,8.90
2023-03-29T22:10:56.744Z,8.90
2023-03-29T22:13:26.691Z,8.87
2023-03-29T22:16:00.678Z,8.85
2023-03-29T22:18:42.076Z,8.82
2023-03-29T22:21:14.311Z,8.80
2023-03-29T22:23:44.051Z,8.80
2023-03-29T22:26:14.777Z,8.78
2023-03-29T22:28:43.872Z,8.76
2023-03-29T22:31:15.885Z,8.74
2023-03-29T22:33:45.216Z,8.73
2023-03-29T22:36:15.586Z,8.73
2023-03-29T22:38:44.470Z,8.74
2023-03-29T22:41:13.513Z,8.74
2023-03-29T22:43:41.969Z,8.76
2023-03-29T22:46:12.135Z,8.76
2023-03-29T22:48:42.299Z,8.76
2023-03-29T22:51:10.719Z,8.76
2023-03-29T22:53:39.955Z,8.77
2023-03-29T22:56:09.211Z,8.76
2023-03-29T22:58:38.221Z,8.76
2023-03-29T23:01:07.742Z,8.77
2023-03-29T23:03:36.857Z,8.74
2023-03-29T23:06:07.232Z,8.72
2023-03-29T23:08:36.233Z,8.71
2023-03-29T23:11:05.589Z,8.72
2023-03-29T23:13:35.161Z,8.71
2023-03-29T23:16:04.929Z,8.69
2023-03-29T23:18:34.608Z,8.70
2023-03-29T23:21:05.624Z,8.66
2023-03-29T23:23:36.851Z,8.64
2023-03-29T23:26:05.953Z,8.65
2023-03-29T23:28:34.777Z,8.64
2023-03-29T23:31:05.433Z,8.62
2023-03-29T23:33:35.920Z,8.60
2023-03-29T23:36:07.434Z,8.59
2023-03-29T23:38:38.948Z,8.59
2023-03-29T23:41:10.447Z,8.57
2023-03-29T23:43:41.302Z,8.58
2023-03-29T23:46:12.168Z,8.57
2023-03-29T23:48:40.929Z,8.57
2023-03-29T23:51:09.859Z,8.56
2023-03-29T23:53:39.847Z,8.55
2023-03-29T23:56:09.132Z,8.55
2023-03-29T23:58:39.138Z,8.53
